Time;durP1;ratioP1;P1;durP2;ratioP2;P2;SDS_P1;SDS_P2;PMS_P1;PMS_P2;Temp;Humidity;BMP_temperature;BMP_pressure;BME280_temperature;BME280_humidity;BME280_pressure;Samples;Min_cycle;Max_cycle;Signal;HPM_P1;HPM_P2
2022/12/10 00:01:59;;;;;;;;;;;;;;;18.70;42.82;100206.02;101852;1335;61326;-84
2022/12/10 00:04:24;;;;;;;;;;;;;;;18.69;42.92;100203.38;101748;1336;61360;-84
2022/12/10 00:06:49;;;;;;;;;;;;;;;18.69;42.78;100192.53;101817;1333;61333;-84
2022/12/10 00:09:15;;;;;;;;;;;;;;;18.69;42.64;100188.60;101856;1332;61297;-82
2022/12/10 00:11:41;;;;;;;;;;;;;;;18.69;42.89;100185.75;101856;1335;61624;-84
2022/12/10 00:14:09;;;;;;;;;;;;;;;18.68;42.85;100192.21;101842;1332;61316;-84
2022/12/10 00:16:35;;;;;;;;;;;;;;;18.68;42.76;100186.70;101816;1336;61232;-84
2022/12/10 00:19:00;;;;;;;;;;;;;;;18.68;42.75;100179.55;101923;1332;61347;-84
2022/12/10 00:21:27;;;;;;;;;;;;;;;18.68;42.65;100177.80;101970;1326;61337;-85
2022/12/10 00:23:52;;;;;;;;;;;;;;;18.68;42.77;100188.52;101947;1329;61306;-84
2022/12/10 00:26:19;;;;;;;;;;;;;;;18.67;42.73;100204.05;101990;1329;61267;-83
2022/12/10 00:28:44;;;;;;;;;;;;;;;18.67;42.73;100201.05;101913;1332;60669;-83
2022/12/10 00:31:20;;;;;;;;;;;;;;;18.67;42.67;100202.30;101972;1332;61321;-84
2022/12/10 00:33:45;;;;;;;;;;;;;;;18.67;42.74;100199.09;101993;1327;74631;-84
2022/12/10 00:36:12;;;;;;;;;;;;;;;18.67;42.62;100190.55;101932;1321;61331;-84
2022/12/10 00:38:37;;;;;;;;;;;;;;;18.67;42.81;100175.20;102058;1333;61380;-83
2022/12/10 00:41:03;;;;;;;;;;;;;;;18.67;42.60;100161.66;101947;1321;61319;-83
2022/12/10 00:43:28;;;;;;;;;;;;;;;18.67;42.65;100164.86;102034;1319;61315;-84
2022/12/10 00:45:54;;;;;;;;;;;;;;;18.67;42.73;100162.93;101971;1333;61437;-84
2022/12/10 00:48:20;;;;;;;;;;;;;;;18.66;42.60;100156.54;102042;1332;61360;-84
2022/12/10 00:50:54;;;;;;;;;;;;;;;18.66;42.68;100150.66;102010;1321;61270;-84
2022/12/10 00:53:19;;;;;;;;;;;;;;;18.66;42.75;100156.20;102085;1318;72220;-84
2022/12/10 00:55:45;;;;;;;;;;;;;;;18.66;42.70;100155.85;101959;1326;61352;-83
2022/12/10 00:58:10;;;;;;;;;;;;;;;18.66;42.66;100161.20;101948;1329;61361;-84
2022/12/10 01:00:36;;;;;;;;;;;;;;;18.65;42.66;100159.98;102039;1327;61277;-83
2022/12/10 01:03:01;;;;;;;;;;;;;;;18.66;42.57;100159.60;102056;1321;59323;-83
2022/12/10 01:05:26;;;;;;;;;;;;;;;18.65;42.64;100157.14;102005;1322;61842;-83
2022/12/10 01:07:53;;;;;;;;;;;;;;;18.65;42.58;100152.33;101903;1336;61382;-83
2022/12/10 01:10:18;;;;;;;;;;;;;;;18.65;42.59;100149.87;101851;1329;61267;-83
2022/12/10 01:12:45;;;;;;;;;;;;;;;18.65;42.68;100146.61;101835;1329;61293;-83
2022/12/10 01:15:11;;;;;;;;;;;;;;;18.65;42.62;100143.27;101983;1329;61282;-84
2022/12/10 01:17:36;;;;;;;;;;;;;;;18.65;42.57;100138.60;101824;1335;61308;-82
2022/12/10 01:20:04;;;;;;;;;;;;;;;18.65;42.65;100132.72;101855;1327;61406;-83
2022/12/10 01:22:29;;;;;;;;;;;;;;;18.66;42.63;100128.04;101864;1333;61787;-83
2022/12/10 01:24:55;;;;;;;;;;;;;;;18.66;42.64;100116.29;101960;1327;61389;-84
2022/12/10 01:27:20;;;;;;;;;;;;;;;18.66;42.74;100116.29;101964;1333;61317;-85
2022/12/10 01:29:45;;;;;;;;;;;;;;;18.66;42.56;100117.00;101974;1328;61321;-84
2022/12/10 01:32:11;;;;;;;;;;;;;;;18.66;42.66;100129.11;102041;1333;61285;-83
2022/12/10 01:34:36;;;;;;;;;;;;;;;18.66;42.72;100133.93;102099;1329;61783;-84
2022/12/10 01:37:03;;;;;;;;;;;;;;;18.65;42.64;100135.73;101978;1329;61276;-85
2022/12/10 01:39:28;;;;;;;;;;;;;;;18.65;42.65;100142.37;101929;1336;61328;-84
2022/12/10 01:41:55;;;;;;;;;;;;;;;18.65;42.64;100134.90;101985;1328;61396;-84
2022/12/10 01:44:20;;;;;;;;;;;;;;;18.65;42.55;100128.13;101963;1335;61337;-84
2022/12/10 01:46:46;;;;;;;;;;;;;;;18.64;42.59;100120.48;102075;1329;61160;-84
2022/12/10 01:49:12;;;;;;;;;;;;;;;18.64;42.62;100118.55;102011;1327;61402;-84
2022/12/10 01:51:38;;;;;;;;;;;;;;;18.64;42.51;100118.59;101907;1333;61263;-84
2022/12/10 01:54:05;;;;;;;;;;;;;;;18.63;42.50;100115.58;101954;1329;61722;-84
2022/12/10 01:56:30;;;;;;;;;;;;;;;18.64;42.48;100107.35;102098;1326;61322;-84
2022/12/10 01:58:55;;;;;;;;;;;;;;;18.63;42.62;100104.38;101973;1329;61286;-84
2022/12/10 02:01:44;;;;;;;;;;;;;;;18.63;42.57;100101.54;101952;1329;61276;-83
2022/12/10 02:04:28;;;;;;;;;;;;;;;18.63;42.57;100096.92;102024;1329;74450;-84
2022/12/10 02:06:55;;;;;;;;;;;;;;;18.63;42.62;100091.93;102055;1320;61447;-84
2022/12/10 02:09:47;;;;;;;;;;;;;;;18.63;42.49;100091.40;102076;1326;61379;-84
2022/12/10 02:12:18;;;;;;;;;;;;;;;18.62;42.57;100100.52;101950;1329;72921;-84
2022/12/10 02:14:50;;;;;;;;;;;;;;;18.62;42.59;100105.88;102075;1319;75610;-84
2022/12/10 02:17:17;;;;;;;;;;;;;;;18.62;42.44;100105.01;101977;1326;61353;-84
2022/12/10 02:19:53;;;;;;;;;;;;;;;18.61;42.36;100109.30;102046;1319;61361;-84
2022/12/10 02:22:19;;;;;;;;;;;;;;;18.62;42.36;100115.19;102051;1335;73800;-84
2022/12/10 02:24:44;;;;;;;;;;;;;;;18.61;42.53;100120.37;101964;1333;61438;-81
2022/12/10 02:27:18;;;;;;;;;;;;;;;18.61;42.60;100123.40;101973;1326;61282;-83
2022/12/10 02:29:44;;;;;;;;;;;;;;;18.61;42.59;100123.60;102010;1329;61264;-83
2022/12/10 02:32:11;;;;;;;;;;;;;;;18.61;42.41;100113.10;101942;1329;61280;-83
2022/12/10 02:34:43;;;;;;;;;;;;;;;18.60;42.48;100106.89;101970;1329;61309;-83
2022/12/10 02:37:11;;;;;;;;;;;;;;;18.60;42.56;100113.48;102016;1335;61189;-83
2022/12/10 02:39:42;;;;;;;;;;;;;;;18.60;42.55;100113.14;102152;1326;61408;-84
2022/12/10 02:42:07;;;;;;;;;;;;;;;18.59;42.48;100110.51;102002;1327;73765;-84
2022/12/10 02:44:33;;;;;;;;;;;;;;;18.59;42.63;100112.48;101935;1329;61355;-84
2022/12/10 02:46:58;;;;;;;;;;;;;;;18.59;42.52;100121.55;101977;1329;61420;-84
2022/12/10 02:49:24;;;;;;;;;;;;;;;18.59;42.54;100117.44;101978;1329;61298;-84
2022/12/10 02:51:50;;;;;;;;;;;;;;;18.59;42.40;100105.54;102007;1329;61337;-85
2022/12/10 02:54:35;;;;;;;;;;;;;;;18.58;42.56;100100.93;102081;1327;72659;-84
2022/12/10 02:57:02;;;;;;;;;;;;;;;18.58;42.44;100089.20;101967;1335;73365;-83
2022/12/10 02:59:28;;;;;;;;;;;;;;;18.58;42.49;100085.62;102098;1323;61187;-83
2022/12/10 03:02:07;;;;;;;;;;;;;;;18.58;42.43;100086.89;102029;1329;61360;-83
2022/12/10 03:04:38;;;;;;;;;;;;;;;18.57;42.43;100091.56;101996;1329;72376;-83
2022/12/10 03:07:09;;;;;;;;;;;;;;;18.57;42.33;100087.67;101970;1335;75383;-83
2022/12/10 03:09:35;;;;;;;;;;;;;;;18.58;42.47;100091.91;102107;1326;59874;-84
2022/12/10 03:12:10;;;;;;;;;;;;;;;18.56;42.45;100088.59;101970;1320;61318;-84
2022/12/10 03:14:36;;;;;;;;;;;;;;;18.57;42.36;100086.98;101962;1326;73488;-83
2022/12/10 03:17:01;;;;;;;;;;;;;;;18.56;42.36;100090.75;101963;1329;61163;-83
2022/12/10 03:19:29;;;;;;;;;;;;;;;18.56;42.56;100082.74;101970;1326;61314;-85
2022/12/10 03:21:55;;;;;;;;;;;;;;;18.56;42.31;100082.59;101984;1329;61730;-84
2022/12/10 03:24:20;;;;;;;;;;;;;;;18.56;42.46;100080.48;101987;1325;59838;-84
2022/12/10 03:26:46;;;;;;;;;;;;;;;18.56;42.42;100077.42;102002;1336;61403;-85
2022/12/10 03:29:31;;;;;;;;;;;;;;;18.55;42.44;100080.13;102017;1328;61350;-83
2022/12/10 03:31:57;;;;;;;;;;;;;;;18.55;42.37;100080.14;102100;1319;60999;-83
2022/12/10 03:34:22;;;;;;;;;;;;;;;18.55;42.34;100079.59;101960;1334;61314;-83
2022/12/10 03:36:48;;;;;;;;;;;;;;;18.55;42.43;100076.39;101981;1329;61299;-83
2022/12/10 03:39:13;;;;;;;;;;;;;;;18.55;42.38;100073.01;101983;1329;61452;-83
2022/12/10 03:41:38;;;;;;;;;;;;;;;18.55;42.39;100067.86;102007;1332;61388;-84
2022/12/10 03:44:04;;;;;;;;;;;;;;;18.55;42.32;100071.06;101958;1329;59371;-84
2022/12/10 03:46:29;;;;;;;;;;;;;;;18.55;42.55;100072.33;101953;1330;61314;-83
2022/12/10 03:48:55;;;;;;;;;;;;;;;18.55;42.36;100081.57;101961;1329;61251;-83
2022/12/10 03:51:21;;;;;;;;;;;;;;;18.54;42.31;100082.87;101990;1333;61287;-85
2022/12/10 03:53:48;;;;;;;;;;;;;;;18.54;42.36;100078.27;102115;1326;61279;-84
2022/12/10 03:56:14;;;;;;;;;;;;;;;18.54;42.41;100074.53;101998;1328;62370;-83
2022/12/10 03:58:39;;;;;;;;;;;;;;;18.54;42.36;100073.48;102037;1329;61320;-85
2022/12/10 04:01:05;;;;;;;;;;;;;;;18.54;42.43;100082.20;102109;1326;61819;-85
2022/12/10 04:03:30;;;;;;;;;;;;;;;18.54;42.26;100082.20;101932;1336;61363;-85
2022/12/10 04:06:05;;;;;;;;;;;;;;;18.54;42.47;100079.00;102029;1329;61340;-84
2022/12/10 04:08:30;;;;;;;;;;;;;;;18.53;42.35;100082.62;101981;1329;61312;-84
2022/12/10 04:11:06;;;;;;;;;;;;;;;18.53;42.52;100077.30;101970;1327;61349;-84
2022/12/10 04:16:26;;;;;;;;;;;;;;;18.53;42.48;100072.30;101973;1313;61377;-84
2022/12/10 04:18:51;;;;;;;;;;;;;;;18.53;42.32;100073.55;101991;1330;61321;-84
2022/12/10 04:26:51;;;;;;;;;;;;;;;18.52;42.44;100083.56;101976;1329;61660;-85
2022/12/10 04:29:17;;;;;;;;;;;;;;;18.52;42.49;100085.17;102019;1326;61227;-85
2022/12/10 04:31:43;;;;;;;;;;;;;;;18.52;42.38;100085.71;101975;1335;61211;-84
2022/12/10 04:34:08;;;;;;;;;;;;;;;18.51;42.29;100089.70;101973;1320;61338;-84
2022/12/10 04:36:34;;;;;;;;;;;;;;;18.51;42.54;100097.35;101973;1333;61334;-85
2022/12/10 04:38:59;;;;;;;;;;;;;;;18.51;42.53;100093.61;102051;1323;61320;-84
2022/12/10 04:41:25;;;;;;;;;;;;;;;18.51;42.27;100087.20;102022;1329;61312;-84
2022/12/10 04:43:51;;;;;;;;;;;;;;;18.51;42.38;100087.21;102078;1330;61401;-84
2022/12/10 04:46:18;;;;;;;;;;;;;;;18.51;42.24;100081.00;102106;1326;61329;-84
2022/12/10 04:48:43;;;;;;;;;;;;;;;18.50;42.46;100072.67;101974;1332;61396;-84
2022/12/10 04:51:09;;;;;;;;;;;;;;;18.50;42.37;100066.61;101971;1327;61317;-85
2022/12/10 04:53:34;;;;;;;;;;;;;;;18.50;42.32;100064.27;102143;1326;61298;-84
2022/12/10 04:56:01;;;;;;;;;;;;;;;18.50;42.28;100064.84;101982;1328;61335;-84
2022/12/10 04:58:30;;;;;;;;;;;;;;;18.50;42.41;100067.69;101955;1329;59819;-84
2022/12/10 05:01:02;;;;;;;;;;;;;;;18.50;42.29;100068.94;101992;1329;61333;-84
2022/12/10 05:03:28;;;;;;;;;;;;;;;18.50;42.40;100065.02;102015;1333;72348;-83
2022/12/10 05:05:53;;;;;;;;;;;;;;;18.49;42.47;100064.52;101967;1328;61348;-84
2022/12/10 05:08:19;;;;;;;;;;;;;;;18.50;42.38;100068.08;101963;1330;61408;-84
2022/12/10 05:10:44;;;;;;;;;;;;;;;18.49;42.42;100064.88;101977;1328;61405;-84
2022/12/10 05:13:09;;;;;;;;;;;;;;;18.49;42.43;100059.58;101986;1329;61333;-84
2022/12/10 05:15:37;;;;;;;;;;;;;;;18.49;42.37;100059.21;101956;1336;61344;-84
2022/12/10 05:18:03;;;;;;;;;;;;;;;18.49;42.40;100062.09;102122;1327;75784;-84
2022/12/10 05:20:28;;;;;;;;;;;;;;;18.49;42.30;100061.55;102011;1323;61305;-84
2022/12/10 05:25:52;;;;;;;;;;;;;;;18.49;42.38;100054.79;102050;1328;73544;-83
2022/12/10 05:28:20;;;;;;;;;;;;;;;18.48;42.26;100048.58;101982;1329;75550;-84
2022/12/10 05:30:45;;;;;;;;;;;;;;;18.48;42.21;100045.02;101984;1333;61225;-84
2022/12/10 05:33:12;;;;;;;;;;;;;;;18.48;42.23;100053.00;101998;1325;61273;-83
2022/12/10 05:35:37;;;;;;;;;;;;;;;18.48;42.27;100053.23;101991;1329;61312;-85
2022/12/10 05:38:03;;;;;;;;;;;;;;;18.48;42.29;100052.69;101973;1329;61317;-84
2022/12/10 05:40:28;;;;;;;;;;;;;;;18.48;42.29;100049.50;101999;1329;60794;-84
2022/12/10 05:42:54;;;;;;;;;;;;;;;18.48;42.20;100053.59;102134;1326;61393;-84
2022/12/10 05:45:20;;;;;;;;;;;;;;;18.48;42.27;100052.02;101976;1333;61317;-85
2022/12/10 05:47:46;;;;;;;;;;;;;;;18.47;42.33;100047.55;101976;1329;72449;-84
2022/12/10 05:50:11;;;;;;;;;;;;;;;18.47;42.23;100047.92;102043;1329;59924;-83
2022/12/10 05:52:37;;;;;;;;;;;;;;;18.47;42.27;100046.16;102027;1328;59938;-83
2022/12/10 05:55:02;;;;;;;;;;;;;;;18.47;42.16;100037.97;101953;1329;61273;-83
2022/12/10 05:57:28;;;;;;;;;;;;;;;18.47;42.27;100039.95;101982;1329;61385;-84
2022/12/10 05:59:53;;;;;;;;;;;;;;;18.47;42.34;100026.77;102047;1327;61373;-84
2022/12/10 06:02:18;;;;;;;;;;;;;;;18.46;42.18;100022.88;102094;1330;61397;-84
2022/12/10 06:04:44;;;;;;;;;;;;;;;18.47;42.15;100022.85;102085;1326;61313;-84
2022/12/10 06:07:09;;;;;;;;;;;;;;;18.46;42.30;100023.42;102094;1330;61387;-84
2022/12/10 06:09:35;;;;;;;;;;;;;;;18.46;42.33;100028.22;101991;1333;61305;-84
2022/12/10 06:12:00;;;;;;;;;;;;;;;18.46;42.14;100028.60;101965;1320;61437;-85
2022/12/10 06:14:25;;;;;;;;;;;;;;;18.46;42.19;100027.20;101996;1327;61314;-84
2022/12/10 06:16:51;;;;;;;;;;;;;;;18.46;42.32;100029.52;101988;1329;61333;-84
2022/12/10 06:19:16;;;;;;;;;;;;;;;18.46;42.29;100029.84;102000;1329;61329;-83
2022/12/10 06:21:42;;;;;;;;;;;;;;;18.46;42.20;100035.23;101991;1329;61362;-86
2022/12/10 06:24:07;;;;;;;;;;;;;;;18.46;42.29;100037.34;101938;1336;61316;-84
2022/12/10 06:26:32;;;;;;;;;;;;;;;18.46;42.32;100054.45;101931;1329;61416;-85
2022/12/10 06:29:00;;;;;;;;;;;;;;;18.46;42.18;100063.02;101971;1325;61748;-84
2022/12/10 06:31:25;;;;;;;;;;;;;;;18.45;42.29;100073.73;101991;1329;61273;-85
2022/12/10 06:33:51;;;;;;;;;;;;;;;18.46;42.29;100068.54;102013;1337;61328;-84
2022/12/10 06:36:17;;;;;;;;;;;;;;;18.45;42.15;100066.95;101981;1329;73410;-84
2022/12/10 06:38:42;;;;;;;;;;;;;;;18.45;42.19;100064.45;101970;1330;59442;-84
2022/12/10 06:41:09;;;;;;;;;;;;;;;18.45;42.35;100066.06;102093;1327;61375;-84
2022/12/10 06:43:34;;;;;;;;;;;;;;;18.46;42.24;100067.46;102006;1329;61178;-84
2022/12/10 06:46:04;;;;;;;;;;;;;;;18.46;42.23;100065.33;101957;1326;61774;-84
2022/12/10 06:48:29;;;;;;;;;;;;;;;18.46;42.39;100066.92;101981;1329;61321;-86
2022/12/10 06:50:55;;;;;;;;;;;;;;;18.46;42.26;100066.40;101982;1333;61374;-84
2022/12/10 06:53:22;;;;;;;;;;;;;;;18.45;42.35;100058.23;101999;1329;61409;-85
2022/12/10 06:55:48;;;;;;;;;;;;;;;18.46;42.35;100055.54;101977;1329;61315;-85
2022/12/10 06:58:13;;;;;;;;;;;;;;;18.46;42.38;100049.27;101935;1329;61317;-84
2022/12/10 07:00:38;;;;;;;;;;;;;;;18.46;42.33;100041.98;101969;1327;61392;-85
2022/12/10 07:03:04;;;;;;;;;;;;;;;18.46;42.30;100035.01;102110;1326;61330;-84
2022/12/10 07:05:30;;;;;;;;;;;;;;;18.46;42.34;100035.39;101982;1330;61056;-84
2022/12/10 07:07:55;;;;;;;;;;;;;;;18.46;42.33;100037.86;102039;1321;61805;-85
2022/12/10 07:10:22;;;;;;;;;;;;;;;18.46;42.31;100037.12;101989;1328;61692;-84
2022/12/10 07:12:47;;;;;;;;;;;;;;;18.46;42.29;100031.45;102011;1329;61335;-84
2022/12/10 07:15:38;;;;;;;;;;;;;;;18.46;42.40;100036.44;101999;1329;60486;-86
2022/12/10 07:18:03;;;;;;;;;;;;;;;18.46;42.41;100043.91;101798;1341;72656;-83
2022/12/10 07:20:29;;;;;;;;;;;;;;;18.46;42.35;100044.98;101742;1341;61339;-84
2022/12/10 07:22:55;;;;;;;;;;;;;;;18.47;42.16;100047.45;101737;1335;61306;-85
2022/12/10 07:25:20;;;;;;;;;;;;;;;18.47;42.20;100047.09;101747;1335;61785;-84
2022/12/10 07:27:45;;;;;;;;;;;;;;;18.46;42.37;100050.33;101755;1335;61291;-84
2022/12/10 07:30:12;;;;;;;;;;;;;;;18.46;42.27;100050.86;101730;1335;72570;-85
2022/12/10 07:32:37;;;;;;;;;;;;;;;18.46;42.26;100051.40;101747;1341;74738;-81
2022/12/10 07:35:03;;;;;;;;;;;;;;;18.46;42.34;100052.83;101735;1335;61442;-84
2022/12/10 07:37:28;;;;;;;;;;;;;;;18.46;42.25;100054.95;101730;1339;61331;-84
2022/12/10 07:39:54;;;;;;;;;;;;;;;18.46;42.23;100053.00;101738;1334;61337;-84
2022/12/10 07:42:21;;;;;;;;;;;;;;;18.46;42.16;100054.07;101828;1339;61309;-85
2022/12/10 07:44:47;;;;;;;;;;;;;;;18.46;42.40;100049.98;101716;1335;75599;-84
2022/12/10 07:47:13;;;;;;;;;;;;;;;18.46;42.18;100041.80;101813;1341;61284;-84
2022/12/10 07:49:38;;;;;;;;;;;;;;;18.45;42.20;100039.35;101735;1339;61275;-84
2022/12/10 07:52:04;;;;;;;;;;;;;;;18.45;42.29;100028.65;101800;1333;61508;-84
2022/12/10 07:54:29;;;;;;;;;;;;;;;18.45;42.22;100021.91;101758;1337;61445;-84
2022/12/10 07:56:54;;;;;;;;;;;;;;;18.45;42.16;100021.55;102039;1329;61268;-83
2022/12/10 07:59:20;;;;;;;;;;;;;;;18.45;42.24;100022.41;102049;1335;61297;-84
2022/12/10 08:01:46;;;;;;;;;;;;;;;18.45;42.31;100018.89;102006;1332;61315;-84
2022/12/10 08:04:11;;;;;;;;;;;;;;;18.44;42.25;100019.83;101979;1333;61269;-84
2022/12/10 08:06:37;;;;;;;;;;;;;;;18.45;42.23;100019.80;102088;1323;61378;-84
2022/12/10 08:09:03;;;;;;;;;;;;;;;18.44;42.16;100021.08;102051;1327;61302;-84
2022/12/10 08:11:29;;;;;;;;;;;;;;;18.44;42.14;100012.71;102001;1330;61840;-84
2022/12/10 08:13:55;;;;;;;;;;;;;;;18.44;42.32;100012.16;102087;1329;61273;-85
2022/12/10 08:16:25;;;;;;;;;;;;;;;18.43;42.18;100008.13;101945;1329;61302;-84
2022/12/10 08:18:50;;;;;;;;;;;;;;;18.43;42.34;100007.03;101389;1329;817631;-84
2022/12/10 08:21:17;;;;;;;;;;;;;;;18.43;42.35;100002.39;102098;1326;61484;-84
2022/12/10 08:23:42;;;;;;;;;;;;;;;18.44;42.36;100003.63;101943;1329;61740;-83
2022/12/10 08:26:13;;;;;;;;;;;;;;;18.43;42.26;100005.45;101876;1327;61403;-82
2022/12/10 08:28:39;;;;;;;;;;;;;;;18.43;42.31;100007.77;101942;1331;73522;-84
2022/12/10 08:31:04;;;;;;;;;;;;;;;18.44;42.33;100006.48;102062;1329;61321;-84
2022/12/10 08:33:30;;;;;;;;;;;;;;;18.43;42.31;99998.11;101979;1330;61386;-84
2022/12/10 08:36:02;;;;;;;;;;;;;;;18.44;42.30;99991.31;101991;1333;61314;-86
2022/12/10 08:38:27;;;;;;;;;;;;;;;18.43;42.44;99987.41;102030;1329;75551;-85
2022/12/10 08:40:53;;;;;;;;;;;;;;;18.44;42.42;99982.08;102005;1333;61382;-83
2022/12/10 08:43:18;;;;;;;;;;;;;;;18.43;42.41;99989.75;101948;1320;61334;-86
2022/12/10 08:45:43;;;;;;;;;;;;;;;18.43;42.32;99989.75;101983;1329;61376;-85
2022/12/10 08:48:09;;;;;;;;;;;;;;;18.43;42.30;99989.94;102095;1327;61264;-83
2022/12/10 08:50:35;;;;;;;;;;;;;;;18.43;42.39;99981.76;101965;1329;61331;-83
2022/12/10 08:53:01;;;;;;;;;;;;;;;18.43;42.47;99979.08;102114;1329;61324;-83
2022/12/10 08:55:26;;;;;;;;;;;;;;;18.43;42.36;99976.22;102008;1332;61268;-83
2022/12/10 08:57:53;;;;;;;;;;;;;;;18.43;42.32;99973.56;102017;1326;61379;-84
2022/12/10 09:00:18;;;;;;;;;;;;;;;18.43;42.45;99969.45;102020;1329;61418;-84
2022/12/10 09:02:44;;;;;;;;;;;;;;;18.43;42.39;99960.54;102047;1326;61429;-83
2022/12/10 09:05:10;;;;;;;;;;;;;;;18.43;42.51;99958.41;101993;1335;61319;-83
2022/12/10 09:07:36;;;;;;;;;;;;;;;18.43;42.53;99956.80;102005;1329;61313;-84
2022/12/10 09:10:01;;;;;;;;;;;;;;;18.43;42.42;99951.83;102063;1329;72484;-84
2022/12/10 09:12:27;;;;;;;;;;;;;;;18.43;42.31;99946.34;102052;1329;61452;-84
2022/12/10 09:14:54;;;;;;;;;;;;;;;18.43;42.31;99949.15;102059;1327;61319;-83
2022/12/10 09:17:19;;;;;;;;;;;;;;;18.43;42.28;99949.88;102097;1327;61326;-83
2022/12/10 09:19:48;;;;;;;;;;;;;;;18.42;42.38;99947.06;102041;1332;61301;-83
2022/12/10 09:22:13;;;;;;;;;;;;;;;18.42;42.38;99944.23;102100;1329;61350;-84
2022/12/10 09:24:39;;;;;;;;;;;;;;;18.42;42.32;99937.81;102054;1333;61410;-85
2022/12/10 09:27:04;;;;;;;;;;;;;;;18.42;42.39;99940.30;102073;1329;61291;-84
2022/12/10 09:29:30;;;;;;;;;;;;;;;18.42;42.41;99937.15;101977;1333;61407;-84
2022/12/10 09:31:55;;;;;;;;;;;;;;;18.42;42.30;99932.31;102069;1334;72551;-84
2022/12/10 09:34:21;;;;;;;;;;;;;;;18.42;42.47;99923.08;101981;1317;61463;-84
2022/12/10 09:36:46;;;;;;;;;;;;;;;18.42;42.38;99923.95;102000;1329;61721;-83
2022/12/10 09:39:12;;;;;;;;;;;;;;;18.42;42.37;99924.33;101990;1329;61309;-84
2022/12/10 09:41:40;;;;;;;;;;;;;;;18.41;42.45;99918.83;102005;1333;62215;-83
2022/12/10 09:44:27;;;;;;;;;;;;;;;18.41;42.45;99919.89;102053;1329;71211;-83
2022/12/10 09:46:52;;;;;;;;;;;;;;;18.41;42.61;99910.45;101970;1329;74545;-84
2022/12/10 09:49:23;;;;;;;;;;;;;;;18.41;42.41;99909.56;102077;1329;61379;-84
2022/12/10 09:51:49;;;;;;;;;;;;;;;18.41;42.43;99908.67;102079;1333;61321;-83
2022/12/10 09:54:33;;;;;;;;;;;;;;;18.41;42.51;99902.07;102053;1333;61264;-84
2022/12/10 09:56:59;;;;;;;;;;;;;;;18.41;42.49;99897.64;102066;1323;74488;-84
2022/12/10 09:59:27;;;;;;;;;;;;;;;18.41;42.45;99900.46;101995;1324;61395;-83
2022/12/10 10:02:19;;;;;;;;;;;;;;;18.42;42.43;99902.58;102074;1328;61157;-83
2022/12/10 10:04:45;;;;;;;;;;;;;;;18.41;42.46;99901.73;102093;1328;72687;-84
2022/12/10 10:07:19;;;;;;;;;;;;;;;18.41;42.36;99900.46;101986;1333;61325;-84
2022/12/10 10:09:44;;;;;;;;;;;;;;;18.41;42.63;99901.90;101972;1329;61234;-83
2022/12/10 10:12:36;;;;;;;;;;;;;;;18.42;42.50;99895.60;102053;1333;61384;-85
2022/12/10 10:15:09;;;;;;;;;;;;;;;18.42;42.59;99896.70;101808;1333;72595;-83
2022/12/10 10:17:35;;;;;;;;;;;;;;;18.41;42.62;99887.98;101760;1334;75419;-83
2022/12/10 10:20:02;;;;;;;;;;;;;;;18.42;42.55;99882.98;101789;1334;61309;-83
2022/12/10 10:22:27;;;;;;;;;;;;;;;18.42;42.56;99882.61;101760;1324;63862;-84
2022/12/10 10:24:53;;;;;;;;;;;;;;;18.41;42.45;99887.27;101640;1325;61340;-84
2022/12/10 10:27:20;;;;;;;;;;;;;;;18.41;42.55;99883.88;101704;1339;61433;-84
2022/12/10 10:29:46;;;;;;;;;;;;;;;18.42;42.58;99880.49;101660;1340;61376;-84
2022/12/10 10:32:12;;;;;;;;;;;;;;;18.42;42.63;99879.23;101810;1332;61455;-84
2022/12/10 10:34:38;;;;;;;;;;;;;;;18.42;42.73;99882.25;101680;1332;61314;-84
2022/12/10 10:37:04;;;;;;;;;;;;;;;18.42;42.61;99879.40;101765;1338;61572;-84
2022/12/10 10:39:31;;;;;;;;;;;;;;;18.42;42.76;99878.14;101749;1337;61299;-84
2022/12/10 10:41:57;;;;;;;;;;;;;;;18.42;42.48;99877.97;101675;1339;61139;-84
2022/12/10 10:44:23;;;;;;;;;;;;;;;18.43;42.71;99871.70;101746;1339;61437;-84
2022/12/10 10:46:49;;;;;;;;;;;;;;;18.42;42.77;99869.39;101665;1337;62369;-84
2022/12/10 10:49:21;;;;;;;;;;;;;;;18.42;42.73;99864.41;101783;1338;61277;-85
2022/12/10 10:51:47;;;;;;;;;;;;;;;18.42;42.76;99863.17;101903;1330;61166;-84
2022/12/10 10:54:30;;;;;;;;;;;;;;;18.42;42.71;99849.81;102073;1333;61257;-84
2022/12/10 10:56:55;;;;;;;;;;;;;;;18.42;42.67;99843.20;102093;1330;72501;-84
2022/12/10 10:59:30;;;;;;;;;;;;;;;18.43;42.88;99842.64;102102;1330;61427;-84
2022/12/10 11:01:59;;;;;;;;;;;;;;;18.42;42.75;99836.45;102129;1326;61188;-84
2022/12/10 11:04:31;;;;;;;;;;;;;;;18.42;42.71;99835.92;102101;1331;61287;-84
2022/12/10 11:06:59;;;;;;;;;;;;;;;18.42;42.73;99836.64;101997;1333;72664;-85
2022/12/10 11:09:25;;;;;;;;;;;;;;;18.42;42.82;99840.05;102022;1326;75588;-84
2022/12/10 11:11:51;;;;;;;;;;;;;;;18.42;42.73;99847.84;102041;1334;61304;-84
2022/12/10 11:14:24;;;;;;;;;;;;;;;18.42;42.80;99847.52;102124;1326;61306;-84
2022/12/10 11:16:49;;;;;;;;;;;;;;;18.42;42.92;99837.18;102005;1326;73074;-83
2022/12/10 11:19:21;;;;;;;;;;;;;;;18.41;42.77;99828.85;102078;1326;61381;-84
2022/12/10 11:21:47;;;;;;;;;;;;;;;18.42;42.91;99820.30;102020;1326;61238;-84
2022/12/10 11:24:13;;;;;;;;;;;;;;;18.42;42.93;99817.61;102081;1326;61311;-84
2022/12/10 11:26:45;;;;;;;;;;;;;;;18.42;42.88;99819.94;101979;1334;61346;-84
2022/12/10 11:29:24;;;;;;;;;;;;;;;18.42;42.88;99826.15;102118;1326;75703;-84
2022/12/10 11:31:58;;;;;;;;;;;;;;;18.42;42.88;99817.27;102104;1327;60043;-84
2022/12/10 11:34:24;;;;;;;;;;;;;;;18.42;43.00;99807.48;102137;1326;61685;-84
2022/12/10 11:37:08;;;;;;;;;;;;;;;18.42;42.96;99798.36;102111;1330;61355;-84
2022/12/10 11:39:39;;;;;;;;;;;;;;;18.42;42.92;99789.08;102083;1326;74465;-83
2022/12/10 11:42:11;;;;;;;;;;;;;;;18.42;42.90;99782.13;102153;1333;61528;-84
2022/12/10 11:44:51;;;;;;;;;;;;;;;18.42;42.93;99769.86;102022;1328;61697;-84
2022/12/10 11:47:21;;;;;;;;;;;;;;;18.42;43.06;99762.50;102016;1329;73433;-84
2022/12/10 11:49:47;;;;;;;;;;;;;;;18.42;43.12;99765.17;102141;1332;74766;-84
2022/12/10 11:52:16;;;;;;;;;;;;;;;18.42;42.90;99761.27;102120;1326;61331;-84
2022/12/10 11:54:45;;;;;;;;;;;;;;;18.42;42.97;99765.90;102152;1330;61341;-84
2022/12/10 11:57:14;;;;;;;;;;;;;;;18.42;43.05;99767.14;102108;1334;73533;-83
2022/12/10 11:59:58;;;;;;;;;;;;;;;18.42;43.05;99770.35;102097;1333;74495;-84
2022/12/10 12:02:28;;;;;;;;;;;;;;;18.42;43.03;99768.21;102149;1326;61209;-84
2022/12/10 12:05:12;;;;;;;;;;;;;;;18.42;43.08;99759.98;101995;1330;61714;-84
2022/12/10 12:07:38;;;;;;;;;;;;;;;18.42;43.10;99754.54;102103;1332;72598;-83
2022/12/10 12:10:22;;;;;;;;;;;;;;;18.42;42.99;99759.33;101945;1333;61281;-83
2022/12/10 12:12:54;;;;;;;;;;;;;;;18.41;43.21;99766.12;101975;1330;61163;-83
2022/12/10 12:15:21;;;;;;;;;;;;;;;18.42;43.08;99774.09;102097;1332;61332;-83
2022/12/10 12:18:13;;;;;;;;;;;;;;;18.42;43.09;99783.55;102111;1333;73528;-84
2022/12/10 12:20:39;;;;;;;;;;;;;;;18.42;43.27;99782.83;102002;1330;75626;-84
2022/12/10 12:23:06;;;;;;;;;;;;;;;18.43;43.18;99783.14;102133;1326;61279;-84
2022/12/10 12:25:35;;;;;;;;;;;;;;;18.43;43.19;99787.73;102030;1332;61414;-83
2022/12/10 12:28:20;;;;;;;;;;;;;;;18.43;43.28;99773.51;101953;1336;73056;-84
2022/12/10 12:30:45;;;;;;;;;;;;;;;18.43;43.33;99756.77;102003;1333;74549;-84
2022/12/10 12:33:24;;;;;;;;;;;;;;;18.44;43.32;99761.34;102128;1331;61279;-84
2022/12/10 12:35:49;;;;;;;;;;;;;;;18.43;43.27;99764.23;102120;1332;61267;-84
2022/12/10 12:38:15;;;;;;;;;;;;;;;18.43;43.33;99753.69;102087;1333;61326;-84
2022/12/10 12:40:43;;;;;;;;;;;;;;;18.45;43.31;99751.15;102113;1327;61325;-84
2022/12/10 12:43:10;;;;;;;;;;;;;;;18.43;43.41;99744.60;102033;1328;61255;-84
2022/12/10 12:45:45;;;;;;;;;;;;;;;18.43;43.31;99729.63;101992;1334;61279;-84